createdAt,value
2019-03-31T00:03:09.713Z,11.29
2019-03-31T00:09:16.526Z,11.13
2019-03-31T00:15:23.068Z,10.97
2019-03-31T00:21:30.026Z,10.86
2019-03-31T00:27:36.644Z,10.82
2019-03-31T00:33:43.337Z,10.80
2019-03-31T00:39:50.121Z,10.79
2019-03-31T00:45:56.726Z,10.79
2019-03-31T00:52:03.356Z,10.78
2019-03-31T00:58:10.395Z,10.83
2019-03-31T01:04:19.734Z,10.94
2019-03-31T01:10:26.604Z,10.85
2019-03-31T01:16:33.989Z,10.65
2019-03-31T01:22:40.766Z,10.59
2019-03-31T01:28:47.608Z,10.68
2019-03-31T01:34:54.880Z,10.72
2019-03-31T01:41:01.584Z,10.40
2019-03-31T01:47:09.627Z,10.42
2019-03-31T01:53:16.296Z,10.62
2019-03-31T01:59:23.096Z,10.89
2019-03-31T02:05:30.231Z,10.74
2019-03-31T02:11:36.926Z,10.24
2019-03-31T02:17:43.581Z,10.21
2019-03-31T02:23:50.158Z,10.25
2019-03-31T02:29:56.754Z,10.21
2019-03-31T02:36:03.488Z,10.13
2019-03-31T02:42:10.224Z,10.16
2019-03-31T02:48:17.282Z,10.16
2019-03-31T02:54:23.983Z,10.06
2019-03-31T03:00:30.655Z,9.99
2019-03-31T03:06:38.957Z,10.09
2019-03-31T03:12:47.082Z,10.27
2019-03-31T03:18:53.914Z,10.54
2019-03-31T03:25:00.650Z,10.72
2019-03-31T03:31:14.632Z,10.79
2019-03-31T03:37:15.526Z,10.77
2019-03-31T03:43:22.276Z,10.73
2019-03-31T03:49:28.895Z,10.71
2019-03-31T03:55:35.622Z,10.63
2019-03-31T04:01:42.223Z,10.66
2019-03-31T04:07:48.857Z,10.60
2019-03-31T04:13:56.078Z,10.54
2019-03-31T04:20:02.692Z,10.47
2019-03-31T04:26:09.394Z,10.49
2019-03-31T04:32:16.038Z,10.50
2019-03-31T04:38:22.710Z,10.52
2019-03-31T04:44:29.277Z,10.47
2019-03-31T04:50:36.405Z,10.41
2019-03-31T04:56:42.985Z,10.34
2019-03-31T05:02:49.596Z,10.28
2019-03-31T05:08:56.263Z,10.34
2019-03-31T05:15:02.844Z,10.35
2019-03-31T05:21:09.523Z,10.38
2019-03-31T05:27:16.550Z,10.44
2019-03-31T05:33:23.561Z,10.50
2019-03-31T05:39:30.431Z,10.57
2019-03-31T05:45:37.127Z,10.59
2019-03-31T05:51:43.790Z,10.59
2019-03-31T05:57:50.786Z,10.69
2019-03-31T06:03:57.590Z,10.81
2019-03-31T06:10:04.455Z,10.81
2019-03-31T06:16:11.153Z,10.82
2019-03-31T06:22:17.736Z,10.83
2019-03-31T06:28:24.421Z,10.87
2019-03-31T06:34:31.084Z,10.77
2019-03-31T06:40:37.819Z,10.69
2019-03-31T06:46:44.401Z,10.66
2019-03-31T06:52:51.099Z,10.54
2019-03-31T06:58:57.677Z,10.33
2019-03-31T07:05:04.533Z,10.20
2019-03-31T07:11:11.275Z,10.20
2019-03-31T07:17:18.686Z,10.13
2019-03-31T07:23:25.267Z,10.02
2019-03-31T07:29:32.626Z,9.91
2019-03-31T07:35:39.266Z,9.82
2019-03-31T07:41:46.185Z,9.73
2019-03-31T07:47:53.033Z,9.68
2019-03-31T07:53:59.778Z,9.65
2019-03-31T08:00:08.966Z,9.64
2019-03-31T08:06:15.594Z,9.61
2019-03-31T08:12:22.193Z,9.47
2019-03-31T08:18:29.601Z,9.50
2019-03-31T08:24:45.614Z,9.65
2019-03-31T08:30:52.375Z,9.70
2019-03-31T08:36:58.987Z,9.75
2019-03-31T08:43:06.059Z,9.81
2019-03-31T08:49:12.698Z,9.81
2019-03-31T08:55:19.327Z,9.84
2019-03-31T09:01:26.011Z,9.72
2019-03-31T09:07:32.745Z,9.84
2019-03-31T09:13:39.537Z,9.90
2019-03-31T09:19:46.192Z,9.98
2019-03-31T09:25:53.071Z,10.00
2019-03-31T09:31:59.672Z,10.07
2019-03-31T09:38:06.264Z,10.26
2019-03-31T09:44:12.850Z,10.37
2019-03-31T09:50:20.887Z,10.43
2019-03-31T09:56:27.631Z,10.55
2019-03-31T10:02:34.349Z,10.87
2019-03-31T10:08:41.086Z,11.01
2019-03-31T10:14:47.727Z,11.21
2019-03-31T10:20:54.428Z,11.21
2019-03-31T10:27:01.099Z,11.42
2019-03-31T10:33:08.118Z,11.52
2019-03-31T10:39:15.322Z,11.44
2019-03-31T10:45:21.992Z,11.57
2019-03-31T10:51:28.616Z,11.74
2019-03-31T10:57:35.689Z,11.72
2019-03-31T11:03:42.322Z,11.44
2019-03-31T11:09:48.969Z,11.34
2019-03-31T11:15:57.465Z,11.67
2019-03-31T11:22:16.805Z,12.22
2019-03-31T11:28:23.459Z,12.33
2019-03-31T11:34:44.867Z,12.33
2019-03-31T11:40:51.505Z,12.31
2019-03-31T11:46:59.280Z,12.53
2019-03-31T11:53:06.336Z,12.67
2019-03-31T11:59:13.033Z,12.95
2019-03-31T12:05:19.855Z,13.25
2019-03-31T12:11:26.459Z,13.25
2019-03-31T12:17:33.498Z,13.48
2019-03-31T12:23:41.028Z,13.24
2019-03-31T12:29:48.148Z,13.39
2019-03-31T12:35:54.999Z,13.67
2019-03-31T12:42:01.757Z,13.49
2019-03-31T12:48:08.581Z,13.37
2019-03-31T12:54:15.570Z,13.40
2019-03-31T13:00:22.813Z,13.37
2019-03-31T13:06:29.580Z,13.42
2019-03-31T13:12:36.985Z,13.63
2019-03-31T13:18:47.062Z,13.82
2019-03-31T13:25:02.183Z,14.07
2019-03-31T13:31:07.459Z,13.89
2019-03-31T13:37:14.886Z,14.20
2019-03-31T13:43:22.608Z,14.08
2019-03-31T13:49:30.973Z,13.94
2019-03-31T13:55:38.297Z,14.31
2019-03-31T14:01:45.375Z,14.51
2019-03-31T14:07:52.387Z,14.60
2019-03-31T14:13:58.949Z,14.53
2019-03-31T14:20:06.211Z,14.53
2019-03-31T14:26:13.031Z,14.48
2019-03-31T14:32:19.630Z,14.46
2019-03-31T14:38:39.489Z,14.44
2019-03-31T14:44:34.665Z,14.45
2019-03-31T14:50:42.192Z,14.87
2019-03-31T14:56:48.785Z,14.68
2019-03-31T15:02:55.499Z,14.87
2019-03-31T15:09:02.388Z,14.86
2019-03-31T15:15:09.295Z,14.77
2019-03-31T15:21:16.019Z,14.93
2019-03-31T15:27:22.634Z,15.09
2019-03-31T15:33:29.758Z,15.34
2019-03-31T15:39:36.377Z,14.98
2019-03-31T15:45:43.306Z,14.79
2019-03-31T15:51:50.601Z,14.93
2019-03-31T15:57:57.513Z,14.38
2019-03-31T16:04:04.164Z,14.53
2019-03-31T16:10:11.050Z,14.37
2019-03-31T16:16:17.051Z,14.43
2019-03-31T16:22:22.895Z,14.18
2019-03-31T16:28:28.667Z,14.29
2019-03-31T16:34:35.478Z,14.42
2019-03-31T16:40:41.425Z,14.30
2019-03-31T16:46:47.208Z,14.29
2019-03-31T16:52:53.059Z,13.89
2019-03-31T16:58:58.878Z,13.64
2019-03-31T17:05:04.840Z,13.33
2019-03-31T17:11:10.658Z,13.20
2019-03-31T17:17:17.019Z,13.32
2019-03-31T17:23:22.940Z,13.11
2019-03-31T17:29:28.745Z,13.02
2019-03-31T17:35:35.222Z,12.85
2019-03-31T17:41:41.098Z,12.67
2019-03-31T17:47:46.911Z,12.56
2019-03-31T17:53:52.790Z,12.40
2019-03-31T17:59:58.565Z,12.37
2019-03-31T18:06:05.207Z,12.19
2019-03-31T18:12:11.068Z,11.94
2019-03-31T18:18:17.784Z,11.80
2019-03-31T18:24:23.656Z,11.66
2019-03-31T18:30:29.519Z,11.53
2019-03-31T18:36:36.698Z,11.45
2019-03-31T18:42:42.914Z,11.35
2019-03-31T18:48:48.800Z,11.24
2019-03-31T18:55:06.974Z,11.19
2019-03-31T19:01:34.029Z,11.05
2019-03-31T19:07:55.541Z,10.99
2019-03-31T19:14:29.648Z,10.90
2019-03-31T19:21:10.802Z,10.76
2019-03-31T19:27:32.563Z,10.71
2019-03-31T19:34:04.179Z,10.62
2019-03-31T19:40:27.746Z,10.50
2019-03-31T19:46:51.758Z,10.50
2019-03-31T19:53:34.315Z,10.34
2019-03-31T20:00:13.900Z,10.30
2019-03-31T20:06:44.641Z,10.23
2019-03-31T20:13:18.139Z,10.10
2019-03-31T20:20:01.282Z,10.01
2019-03-31T20:26:23.470Z,9.94
2019-03-31T20:33:07.595Z,9.79
2019-03-31T20:39:26.182Z,9.74
2019-03-31T20:45:32.032Z,9.64
2019-03-31T20:51:38.127Z,9.53
2019-03-31T20:57:43.881Z,9.41
2019-03-31T21:03:50.003Z,9.29
2019-03-31T21:09:56.403Z,9.18
2019-03-31T21:16:02.273Z,9.08
2019-03-31T21:22:08.035Z,8.97
2019-03-31T21:28:13.794Z,8.85
2019-03-31T21:34:19.969Z,8.73
2019-03-31T21:40:26.434Z,8.59
2019-03-31T21:46:32.465Z,8.45
2019-03-31T21:52:38.213Z,8.29
2019-03-31T21:58:44.000Z,8.15
2019-03-31T22:04:49.852Z,8.06
2019-03-31T22:10:55.799Z,7.96
2019-03-31T22:17:01.573Z,7.84
2019-03-31T22:23:07.348Z,7.75
2019-03-31T22:29:13.619Z,7.57
2019-03-31T22:35:19.374Z,7.51
2019-03-31T22:41:25.204Z,7.40
2019-03-31T22:47:31.481Z,7.29
2019-03-31T22:53:37.418Z,7.17
2019-03-31T22:59:43.214Z,7.09
2019-03-31T23:05:49.294Z,6.99
2019-03-31T23:11:55.046Z,6.93
2019-03-31T23:18:00.905Z,6.76
2019-03-31T23:24:06.769Z,6.63
2019-03-31T23:30:12.797Z,6.58
2019-03-31T23:36:18.660Z,6.42
2019-03-31T23:42:24.632Z,6.36
2019-03-31T23:48:30.399Z,6.27
2019-03-31T23:54:36.161Z,6.17
